sensor_id;sensor_type;location;lat;lon;timestamp;temperature;humidity
6824;DHT22;58633;49.470;11.004;2022-12-29T00:01:25;7.80;67.40
6824;DHT22;58633;49.470;11.004;2022-12-29T00:03:51;7.70;67.30
6824;DHT22;58633;49.470;11.004;2022-12-29T00:06:16;7.80;67.40
6824;DHT22;58633;49.470;11.004;2022-12-29T00:08:42;7.80;67.30
6824;DHT22;58633;49.470;11.004;2022-12-29T00:11:09;7.90;67.40
6824;DHT22;58633;49.470;11.004;2022-12-29T00:13:35;7.90;67.30
6824;DHT22;58633;49.470;11.004;2022-12-29T00:16:20;7.90;67.20
6824;DHT22;58633;49.470;11.004;2022-12-29T00:18:46;7.90;67.20
6824;DHT22;58633;49.470;11.004;2022-12-29T00:21:19;7.90;67.20
6824;DHT22;58633;49.470;11.004;2022-12-29T00:24:04;8.00;67.20
6824;DHT22;58633;49.470;11.004;2022-12-29T00:29:45;8.00;67.20
6824;DHT22;58633;49.470;11.004;2022-12-29T00:32:30;8.00;67.10
6824;DHT22;58633;49.470;11.004;2022-12-29T00:35:23;8.00;67.10
6824;DHT22;58633;49.470;11.004;2022-12-29T00:37:50;8.00;67.00
6824;DHT22;58633;49.470;11.004;2022-12-29T00:40:35;8.00;67.10
6824;DHT22;58633;49.470;11.004;2022-12-29T00:43:19;8.00;67.00
6824;DHT22;58633;49.470;11.004;2022-12-29T00:46:04;8.10;67.10
6824;DHT22;58633;49.470;11.004;2022-12-29T00:48:29;8.10;67.10
6824;DHT22;58633;49.470;11.004;2022-12-29T00:51:13;8.10;67.00
6824;DHT22;58633;49.470;11.004;2022-12-29T00:53:39;8.10;67.00
6824;DHT22;58633;49.470;11.004;2022-12-29T00:56:04;8.10;66.90
6824;DHT22;58633;49.470;11.004;2022-12-29T00:58:30;8.10;66.90
6824;DHT22;58633;49.470;11.004;2022-12-29T01:01:06;8.20;66.90
6824;DHT22;58633;49.470;11.004;2022-12-29T01:03:33;8.20;66.80
6824;DHT22;58633;49.470;11.004;2022-12-29T01:06:05;8.20;66.80
6824;DHT22;58633;49.470;11.004;2022-12-29T01:08:31;8.20;66.80
6824;DHT22;58633;49.470;11.004;2022-12-29T01:11:01;8.20;66.70
6824;DHT22;58633;49.470;11.004;2022-12-29T01:13:27;8.20;66.70
6824;DHT22;58633;49.470;11.004;2022-12-29T01:15:53;8.20;66.70
6824;DHT22;58633;49.470;11.004;2022-12-29T01:18:20;8.30;66.80
6824;DHT22;58633;49.470;11.004;2022-12-29T01:20:46;8.30;66.80
6824;DHT22;58633;49.470;11.004;2022-12-29T01:23:12;8.30;66.70
6824;DHT22;58633;49.470;11.004;2022-12-29T01:25:37;8.30;66.60
6824;DHT22;58633;49.470;11.004;2022-12-29T01:28:03;8.30;66.50
6824;DHT22;58633;49.470;11.004;2022-12-29T01:30:28;8.40;66.50
6824;DHT22;58633;49.470;11.004;2022-12-29T01:32:55;8.40;66.60
6824;DHT22;58633;49.470;11.004;2022-12-29T01:35:21;8.40;66.50
6824;DHT22;58633;49.470;11.004;2022-12-29T01:37:46;8.40;66.40
6824;DHT22;58633;49.470;11.004;2022-12-29T01:40:12;8.50;66.50
6824;DHT22;58633;49.470;11.004;2022-12-29T01:42:38;8.50;66.40
6824;DHT22;58633;49.470;11.004;2022-12-29T01:45:09;8.50;66.40
6824;DHT22;58633;49.470;11.004;2022-12-29T01:47:54;8.50;66.30
6824;DHT22;58633;49.470;11.004;2022-12-29T01:50:50;8.60;66.40
6824;DHT22;58633;49.470;11.004;2022-12-29T01:53:35;8.60;66.40
6824;DHT22;58633;49.470;11.004;2022-12-29T01:56:04;8.60;66.30
6824;DHT22;58633;49.470;11.004;2022-12-29T01:58:35;8.60;66.30
6824;DHT22;58633;49.470;11.004;2022-12-29T02:01:02;8.60;66.20
6824;DHT22;58633;49.470;11.004;2022-12-29T02:03:28;8.70;66.30
6824;DHT22;58633;49.470;11.004;2022-12-29T02:06:07;8.70;66.30
6824;DHT22;58633;49.470;11.004;2022-12-29T02:08:36;8.70;66.20
6824;DHT22;58633;49.470;11.004;2022-12-29T02:11:03;8.60;66.20
6824;DHT22;58633;49.470;11.004;2022-12-29T02:13:30;8.70;66.30
6824;DHT22;58633;49.470;11.004;2022-12-29T02:16:17;8.70;66.20
6824;DHT22;58633;49.470;11.004;2022-12-29T02:19:08;8.70;66.20
6824;DHT22;58633;49.470;11.004;2022-12-29T02:24:42;8.80;66.30
6824;DHT22;58633;49.470;11.004;2022-12-29T02:33:06;8.80;66.20
6824;DHT22;58633;49.470;11.004;2022-12-29T02:35:37;8.80;66.10
6824;DHT22;58633;49.470;11.004;2022-12-29T02:41:33;8.80;66.10
6824;DHT22;58633;49.470;11.004;2022-12-29T02:44:24;8.80;66.10
6824;DHT22;58633;49.470;11.004;2022-12-29T02:47:37;8.80;66.10
6824;DHT22;58633;49.470;11.004;2022-12-29T02:50:27;8.80;66.10
6824;DHT22;58633;49.470;11.004;2022-12-29T02:52:59;8.80;66.10
6824;DHT22;58633;49.470;11.004;2022-12-29T02:55:25;8.80;66.20
6824;DHT22;58633;49.470;11.004;2022-12-29T02:58:19;8.80;66.30
6824;DHT22;58633;49.470;11.004;2022-12-29T03:03:40;8.90;66.30
6824;DHT22;58633;49.470;11.004;2022-12-29T03:12:21;8.90;66.30
6824;DHT22;58633;49.470;11.004;2022-12-29T03:14:59;8.90;66.30
6824;DHT22;58633;49.470;11.004;2022-12-29T03:17:52;8.90;66.20
6824;DHT22;58633;49.470;11.004;2022-12-29T03:20:39;9.00;66.40
6824;DHT22;58633;49.470;11.004;2022-12-29T03:23:07;9.00;66.30
6824;DHT22;58633;49.470;11.004;2022-12-29T03:25:39;9.00;66.30
6824;DHT22;58633;49.470;11.004;2022-12-29T03:28:10;9.00;66.20
6824;DHT22;58633;49.470;11.004;2022-12-29T03:30:39;9.00;66.20
6824;DHT22;58633;49.470;11.004;2022-12-29T03:33:09;9.00;66.20
6824;DHT22;58633;49.470;11.004;2022-12-29T03:35:37;9.00;66.30
6824;DHT22;58633;49.470;11.004;2022-12-29T03:40:57;9.00;66.20
6824;DHT22;58633;49.470;11.004;2022-12-29T03:43:24;9.10;66.30
6824;DHT22;58633;49.470;11.004;2022-12-29T03:45:50;9.10;66.30
6824;DHT22;58633;49.470;11.004;2022-12-29T03:48:16;9.10;66.30
6824;DHT22;58633;49.470;11.004;2022-12-29T03:50:41;9.10;66.20
6824;DHT22;58633;49.470;11.004;2022-12-29T03:53:07;9.10;66.20
6824;DHT22;58633;49.470;11.004;2022-12-29T03:55:33;9.10;66.20
6824;DHT22;58633;49.470;11.004;2022-12-29T03:57:58;9.10;66.10
6824;DHT22;58633;49.470;11.004;2022-12-29T04:00:24;9.10;66.00
6824;DHT22;58633;49.470;11.004;2022-12-29T04:02:49;9.10;66.00
6824;DHT22;58633;49.470;11.004;2022-12-29T04:05:15;9.20;66.10
6824;DHT22;58633;49.470;11.004;2022-12-29T04:07:41;9.20;66.00
6824;DHT22;58633;49.470;11.004;2022-12-29T04:10:06;9.20;66.00
6824;DHT22;58633;49.470;11.004;2022-12-29T04:12:32;9.20;66.00
6824;DHT22;58633;49.470;11.004;2022-12-29T04:14:59;9.10;65.80
6824;DHT22;58633;49.470;11.004;2022-12-29T04:17:24;9.10;65.90
6824;DHT22;58633;49.470;11.004;2022-12-29T04:19:50;9.10;65.90
6824;DHT22;58633;49.470;11.004;2022-12-29T04:22:16;9.10;65.90
6824;DHT22;58633;49.470;11.004;2022-12-29T04:24:41;9.10;65.90
6824;DHT22;58633;49.470;11.004;2022-12-29T04:27:07;9.10;65.90
6824;DHT22;58633;49.470;11.004;2022-12-29T04:29:32;9.10;65.90
6824;DHT22;58633;49.470;11.004;2022-12-29T04:31:58;9.10;65.80
6824;DHT22;58633;49.470;11.004;2022-12-29T04:34:23;9.10;65.70
6824;DHT22;58633;49.470;11.004;2022-12-29T04:36:49;9.10;65.70
6824;DHT22;58633;49.470;11.004;2022-12-29T04:39:14;9.10;65.70
6824;DHT22;58633;49.470;11.004;2022-12-29T04:41:40;9.10;65.60
6824;DHT22;58633;49.470;11.004;2022-12-29T04:44:05;9.10;65.50
6824;DHT22;58633;49.470;11.004;2022-12-29T04:46:31;9.10;65.50
6824;DHT22;58633;49.470;11.004;2022-12-29T04:48:56;9.10;65.70
6824;DHT22;58633;49.470;11.004;2022-12-29T04:51:22;9.10;65.50
6824;DHT22;58633;49.470;11.004;2022-12-29T04:53:48;9.30;65.60
6824;DHT22;58633;49.470;11.004;2022-12-29T04:56:13;9.10;65.40
6824;DHT22;58633;49.470;11.004;2022-12-29T04:58:39;9.10;65.40
6824;DHT22;58633;49.470;11.004;2022-12-29T05:01:05;9.00;65.20
6824;DHT22;58633;49.470;11.004;2022-12-29T05:03:30;8.90;65.30
6824;DHT22;58633;49.470;11.004;2022-12-29T05:05:56;8.80;65.30
6824;DHT22;58633;49.470;11.004;2022-12-29T05:08:23;8.80;65.30
6824;DHT22;58633;49.470;11.004;2022-12-29T05:10:50;8.80;65.40
6824;DHT22;58633;49.470;11.004;2022-12-29T05:13:16;8.80;65.50
6824;DHT22;58633;49.470;11.004;2022-12-29T05:15:47;8.90;65.60
6824;DHT22;58633;49.470;11.004;2022-12-29T05:18:14;8.90;65.40
6824;DHT22;58633;49.470;11.004;2022-12-29T05:20:39;8.90;65.30
6824;DHT22;58633;49.470;11.004;2022-12-29T05:23:05;8.90;65.10
6824;DHT22;58633;49.470;11.004;2022-12-29T05:25:30;8.90;65.00
6824;DHT22;58633;49.470;11.004;2022-12-29T05:27:56;8.90;65.00
6824;DHT22;58633;49.470;11.004;2022-12-29T05:30:21;8.90;65.10
6824;DHT22;58633;49.470;11.004;2022-12-29T05:32:47;8.90;65.00
6824;DHT22;58633;49.470;11.004;2022-12-29T05:35:12;8.80;65.00
6824;DHT22;58633;49.470;11.004;2022-12-29T05:37:38;10.90;65.90
6824;DHT22;58633;49.470;11.004;2022-12-29T05:40:04;8.70;65.00
6824;DHT22;58633;49.470;11.004;2022-12-29T05:42:29;8.70;65.00
6824;DHT22;58633;49.470;11.004;2022-12-29T05:44:55;8.70;65.20
6824;DHT22;58633;49.470;11.004;2022-12-29T05:47:20;8.60;65.10
6824;DHT22;58633;49.470;11.004;2022-12-29T05:49:46;8.60;65.30
6824;DHT22;58633;49.470;11.004;2022-12-29T05:52:12;8.50;65.20
6824;DHT22;58633;49.470;11.004;2022-12-29T05:54:37;8.50;65.30
6824;DHT22;58633;49.470;11.004;2022-12-29T05:57:03;8.50;65.40
6824;DHT22;58633;49.470;11.004;2022-12-29T05:59:28;8.40;65.40
6824;DHT22;58633;49.470;11.004;2022-12-29T06:01:54;8.40;65.50
6824;DHT22;58633;49.470;11.004;2022-12-29T06:04:19;8.40;65.50
6824;DHT22;58633;49.470;11.004;2022-12-29T06:06:45;8.40;65.60
6824;DHT22;58633;49.470;11.004;2022-12-29T06:09:10;8.40;65.70
6824;DHT22;58633;49.470;11.004;2022-12-29T06:11:36;8.30;65.60
6824;DHT22;58633;49.470;11.004;2022-12-29T06:14:02;8.30;65.60
6824;DHT22;58633;49.470;11.004;2022-12-29T06:16:28;8.30;65.70
6824;DHT22;58633;49.470;11.004;2022-12-29T06:18:53;8.30;65.70
6824;DHT22;58633;49.470;11.004;2022-12-29T06:21:19;8.30;65.80
6824;DHT22;58633;49.470;11.004;2022-12-29T06:23:44;8.30;65.90
6824;DHT22;58633;49.470;11.004;2022-12-29T06:26:10;8.20;65.80
6824;DHT22;58633;49.470;11.004;2022-12-29T06:28:35;10.10;66.60
6824;DHT22;58633;49.470;11.004;2022-12-29T06:31:01;8.20;65.90
6824;DHT22;58633;49.470;11.004;2022-12-29T06:33:28;8.20;66.00
6824;DHT22;58633;49.470;11.004;2022-12-29T06:35:54;8.20;66.00
6824;DHT22;58633;49.470;11.004;2022-12-29T06:38:19;8.20;66.00
6824;DHT22;58633;49.470;11.004;2022-12-29T06:40:45;8.20;66.00
6824;DHT22;58633;49.470;11.004;2022-12-29T06:43:10;8.10;65.80
6824;DHT22;58633;49.470;11.004;2022-12-29T06:45:38;8.10;65.80
6824;DHT22;58633;49.470;11.004;2022-12-29T06:48:05;8.10;65.80
6824;DHT22;58633;49.470;11.004;2022-12-29T06:50:31;8.10;65.80
6824;DHT22;58633;49.470;11.004;2022-12-29T06:52:56;8.10;65.90
6824;DHT22;58633;49.470;11.004;2022-12-29T06:55:22;8.10;65.90
6824;DHT22;58633;49.470;11.004;2022-12-29T06:57:47;8.10;65.90
6824;DHT22;58633;49.470;11.004;2022-12-29T07:00:13;8.10;66.00
6824;DHT22;58633;49.470;11.004;2022-12-29T07:02:39;8.10;65.80
6824;DHT22;58633;49.470;11.004;2022-12-29T07:05:04;8.10;65.80
6824;DHT22;58633;49.470;11.004;2022-12-29T07:07:30;10.00;66.40
6824;DHT22;58633;49.470;11.004;2022-12-29T07:09:56;8.10;65.80
6824;DHT22;58633;49.470;11.004;2022-12-29T07:12:21;8.00;65.60
6824;DHT22;58633;49.470;11.004;2022-12-29T07:14:47;8.10;65.70
6824;DHT22;58633;49.470;11.004;2022-12-29T07:17:12;8.10;65.60
6824;DHT22;58633;49.470;11.004;2022-12-29T07:19:38;8.10;65.50
6824;DHT22;58633;49.470;11.004;2022-12-29T07:22:03;8.10;65.40
6824;DHT22;58633;49.470;11.004;2022-12-29T07:24:29;8.20;65.40
6824;DHT22;58633;49.470;11.004;2022-12-29T07:26:55;8.20;65.50
6824;DHT22;58633;49.470;11.004;2022-12-29T07:29:20;8.20;65.40
6824;DHT22;58633;49.470;11.004;2022-12-29T07:31:46;8.30;65.30
6824;DHT22;58633;49.470;11.004;2022-12-29T07:34:11;8.40;65.20
6824;DHT22;58633;49.470;11.004;2022-12-29T07:36:37;8.40;64.90
6824;DHT22;58633;49.470;11.004;2022-12-29T07:39:03;8.50;64.70
6824;DHT22;58633;49.470;11.004;2022-12-29T07:41:29;8.40;64.50
6824;DHT22;58633;49.470;11.004;2022-12-29T07:43:55;8.40;64.50
6824;DHT22;58633;49.470;11.004;2022-12-29T07:46:20;8.50;64.70
6824;DHT22;58633;49.470;11.004;2022-12-29T07:48:46;8.50;64.50
6824;DHT22;58633;49.470;11.004;2022-12-29T07:51:11;8.60;64.50
6824;DHT22;58633;49.470;11.004;2022-12-29T07:53:37;8.60;64.30
6824;DHT22;58633;49.470;11.004;2022-12-29T07:56:02;10.70;65.20
6824;DHT22;58633;49.470;11.004;2022-12-29T07:58:28;8.70;64.30
6824;DHT22;58633;49.470;11.004;2022-12-29T08:00:55;8.70;64.30
6824;DHT22;58633;49.470;11.004;2022-12-29T08:03:21;8.80;64.20
6824;DHT22;58633;49.470;11.004;2022-12-29T08:05:46;8.80;64.00
6824;DHT22;58633;49.470;11.004;2022-12-29T08:08:12;8.90;64.00
6824;DHT22;58633;49.470;11.004;2022-12-29T08:10:37;8.90;63.90
6824;DHT22;58633;49.470;11.004;2022-12-29T08:13:03;8.80;63.80
6824;DHT22;58633;49.470;11.004;2022-12-29T08:15:28;8.90;63.90
6824;DHT22;58633;49.470;11.004;2022-12-29T08:17:54;8.90;64.00
6824;DHT22;58633;49.470;11.004;2022-12-29T08:20:19;8.90;63.80
6824;DHT22;58633;49.470;11.004;2022-12-29T08:22:45;9.00;63.70
6824;DHT22;58633;49.470;11.004;2022-12-29T08:25:10;9.00;63.60
6824;DHT22;58633;49.470;11.004;2022-12-29T08:27:36;9.10;63.60
6824;DHT22;58633;49.470;11.004;2022-12-29T08:30:02;9.10;63.50
6824;DHT22;58633;49.470;11.004;2022-12-29T08:32:27;9.20;63.50
6824;DHT22;58633;49.470;11.004;2022-12-29T08:34:53;9.20;63.30
6824;DHT22;58633;49.470;11.004;2022-12-29T08:37:19;9.30;63.40
6824;DHT22;58633;49.470;11.004;2022-12-29T08:39:45;9.30;63.20
6824;DHT22;58633;49.470;11.004;2022-12-29T08:42:10;9.40;63.30
6824;DHT22;58633;49.470;11.004;2022-12-29T08:44:36;9.40;63.20
6824;DHT22;58633;49.470;11.004;2022-12-29T08:47:02;9.50;63.10
6824;DHT22;58633;49.470;11.004;2022-12-29T08:49:27;9.60;63.00
6824;DHT22;58633;49.470;11.004;2022-12-29T08:51:53;9.70;62.90
6824;DHT22;58633;49.470;11.004;2022-12-29T08:54:18;9.70;62.90
6824;DHT22;58633;49.470;11.004;2022-12-29T08:56:44;9.70;62.60
6824;DHT22;58633;49.470;11.004;2022-12-29T08:59:10;9.70;62.60
6824;DHT22;58633;49.470;11.004;2022-12-29T09:01:35;9.80;62.70
6824;DHT22;58633;49.470;11.004;2022-12-29T09:04:02;9.80;62.60
6824;DHT22;58633;49.470;11.004;2022-12-29T09:06:27;9.80;62.50
6824;DHT22;58633;49.470;11.004;2022-12-29T09:08:54;9.90;63.20
6824;DHT22;58633;49.470;11.004;2022-12-29T09:11:23;10.00;61.40
6824;DHT22;58633;49.470;11.004;2022-12-29T09:13:49;10.00;61.40
6824;DHT22;58633;49.470;11.004;2022-12-29T09:16:15;10.10;61.40
6824;DHT22;58633;49.470;11.004;2022-12-29T09:18:41;10.30;61.50
6824;DHT22;58633;49.470;11.004;2022-12-29T09:21:07;10.40;61.30
6824;DHT22;58633;49.470;11.004;2022-12-29T09:23:34;10.70;61.30
6824;DHT22;58633;49.470;11.004;2022-12-29T09:25:59;11.00;61.00
6824;DHT22;58633;49.470;11.004;2022-12-29T09:28:25;11.10;60.50
6824;DHT22;58633;49.470;11.004;2022-12-29T09:30:51;11.10;60.40
6824;DHT22;58633;49.470;11.004;2022-12-29T09:33:17;11.10;60.50
6824;DHT22;58633;49.470;11.004;2022-12-29T09:35:55;11.20;60.70
6824;DHT22;58633;49.470;11.004;2022-12-29T09:38:21;11.20;61.10
6824;DHT22;58633;49.470;11.004;2022-12-29T09:40:55;11.10;60.50
6824;DHT22;58633;49.470;11.004;2022-12-29T09:43:45;12.10;61.50
6824;DHT22;58633;49.470;11.004;2022-12-29T09:46:26;11.20;60.60
6824;DHT22;58633;49.470;11.004;2022-12-29T09:51:51;11.20;60.60
6824;DHT22;58633;49.470;11.004;2022-12-29T09:54:40;11.30;60.70
6824;DHT22;58633;49.470;11.004;2022-12-29T09:57:25;11.30;60.70
6824;DHT22;58633;49.470;11.004;2022-12-29T10:02:53;11.30;60.70
6824;DHT22;58633;49.470;11.004;2022-12-29T10:05:27;11.30;60.70
6824;DHT22;58633;49.470;11.004;2022-12-29T10:10:35;11.40;60.90
6824;DHT22;58633;49.470;11.004;2022-12-29T10:13:26;11.30;60.80
6824;DHT22;58633;49.470;11.004;2022-12-29T10:16:24;11.30;60.80
6824;DHT22;58633;49.470;11.004;2022-12-29T10:19:45;11.30;60.90
6824;DHT22;58633;49.470;11.004;2022-12-29T10:24:20;11.40;61.10
6824;DHT22;58633;49.470;11.004;2022-12-29T10:26:48;11.40;61.20
6824;DHT22;58633;49.470;11.004;2022-12-29T10:29:26;11.40;61.20
6824;DHT22;58633;49.470;11.004;2022-12-29T10:32:00;11.50;61.20
6824;DHT22;58633;49.470;11.004;2022-12-29T10:34:34;12.80;62.50
6824;DHT22;58633;49.470;11.004;2022-12-29T10:39:54;11.70;61.00
6824;DHT22;58633;49.470;11.004;2022-12-29T10:42:37;11.80;61.00
6824;DHT22;58633;49.470;11.004;2022-12-29T10:45:08;11.80;60.90
6824;DHT22;58633;49.470;11.004;2022-12-29T10:48:27;11.80;60.80
6824;DHT22;58633;49.470;11.004;2022-12-29T10:50:27;11.90;60.80
6824;DHT22;58633;49.470;11.004;2022-12-29T10:52:57;11.90;60.80
6824;DHT22;58633;49.470;11.004;2022-12-29T10:55:34;12.00;60.80
6824;DHT22;58633;49.470;11.004;2022-12-29T10:58:04;12.10;60.70
6824;DHT22;58633;49.470;11.004;2022-12-29T11:00:30;12.10;60.50
6824;DHT22;58633;49.470;11.004;2022-12-29T11:08:16;12.20;60.40
6824;DHT22;58633;49.470;11.004;2022-12-29T11:10:44;12.20;60.30
6824;DHT22;58633;49.470;11.004;2022-12-29T11:13:16;12.30;60.40
6824;DHT22;58633;49.470;11.004;2022-12-29T11:15:48;12.30;60.30
6824;DHT22;58633;49.470;11.004;2022-12-29T11:18:34;12.40;60.40
6824;DHT22;58633;49.470;11.004;2022-12-29T11:21:04;12.40;60.10
6824;DHT22;58633;49.470;11.004;2022-12-29T11:23:33;12.50;60.10
6824;DHT22;58633;49.470;11.004;2022-12-29T11:26:13;12.60;60.00
6824;DHT22;58633;49.470;11.004;2022-12-29T11:28:40;13.80;61.00
6824;DHT22;58633;49.470;11.004;2022-12-29T11:31:07;12.60;59.90
6824;DHT22;58633;49.470;11.004;2022-12-29T11:33:35;12.60;59.80
6824;DHT22;58633;49.470;11.004;2022-12-29T11:36:11;12.60;59.70
6824;DHT22;58633;49.470;11.004;2022-12-29T11:38:56;12.60;59.90
6824;DHT22;58633;49.470;11.004;2022-12-29T11:41:27;12.60;60.10
6824;DHT22;58633;49.470;11.004;2022-12-29T11:43:55;12.70;60.10
6824;DHT22;58633;49.470;11.004;2022-12-29T11:46:28;12.70;60.20
6824;DHT22;58633;49.470;11.004;2022-12-29T11:48:54;12.80;60.20
6824;DHT22;58633;49.470;11.004;2022-12-29T11:51:26;12.90;60.30
6824;DHT22;58633;49.470;11.004;2022-12-29T11:53:57;12.90;60.20
6824;DHT22;58633;49.470;11.004;2022-12-29T11:56:43;12.90;60.10
6824;DHT22;58633;49.470;11.004;2022-12-29T12:02:02;12.80;60.20
6824;DHT22;58633;49.470;11.004;2022-12-29T12:04:36;12.80;60.40
6824;DHT22;58633;49.470;11.004;2022-12-29T12:09:43;12.90;60.60
6824;DHT22;58633;49.470;11.004;2022-12-29T12:12:29;13.00;60.50
6824;DHT22;58633;49.470;11.004;2022-12-29T12:14:58;13.10;60.60
6824;DHT22;58633;49.470;11.004;2022-12-29T12:17:33;13.20;60.50
6824;DHT22;58633;49.470;11.004;2022-12-29T12:20:14;13.30;60.40
6824;DHT22;58633;49.470;11.004;2022-12-29T12:22:46;13.30;60.40
6824;DHT22;58633;49.470;11.004;2022-12-29T12:25:37;13.30;60.50
6824;DHT22;58633;49.470;11.004;2022-12-29T12:28:22;13.30;60.40
6824;DHT22;58633;49.470;11.004;2022-12-29T12:30:53;13.20;60.40
6824;DHT22;58633;49.470;11.004;2022-12-29T12:33:36;13.20;60.40
6824;DHT22;58633;49.470;11.004;2022-12-29T12:36:10;13.10;60.60
6824;DHT22;58633;49.470;11.004;2022-12-29T12:38:55;13.20;60.80
6824;DHT22;58633;49.470;11.004;2022-12-29T12:44:30;13.20;60.90
6824;DHT22;58633;49.470;11.004;2022-12-29T12:47:21;13.20;61.00
6824;DHT22;58633;49.470;11.004;2022-12-29T12:50:05;13.10;61.70
6824;DHT22;58633;49.470;11.004;2022-12-29T12:55:45;13.00;61.50
6824;DHT22;58633;49.470;11.004;2022-12-29T12:58:26;13.00;61.80
6824;DHT22;58633;49.470;11.004;2022-12-29T13:06:35;13.00;62.00
6824;DHT22;58633;49.470;11.004;2022-12-29T13:18:44;12.90;62.30
6824;DHT22;58633;49.470;11.004;2022-12-29T13:26:49;12.90;62.60
6824;DHT22;58633;49.470;11.004;2022-12-29T13:29:34;12.80;62.80
6824;DHT22;58633;49.470;11.004;2022-12-29T13:34:46;12.70;63.00
6824;DHT22;58633;49.470;11.004;2022-12-29T13:37:20;12.70;63.30
6824;DHT22;58633;49.470;11.004;2022-12-29T13:40:02;12.70;63.30
6824;DHT22;58633;49.470;11.004;2022-12-29T13:42:29;12.70;63.40
6824;DHT22;58633;49.470;11.004;2022-12-29T13:45:02;12.70;63.30
6824;DHT22;58633;49.470;11.004;2022-12-29T13:47:48;12.80;63.20
6824;DHT22;58633;49.470;11.004;2022-12-29T13:50:21;12.80;63.10
6824;DHT22;58633;49.470;11.004;2022-12-29T13:53:04;12.80;63.00
6824;DHT22;58633;49.470;11.004;2022-12-29T13:55:55;12.80;63.10
6824;DHT22;58633;49.470;11.004;2022-12-29T14:06:23;12.60;63.40
6824;DHT22;58633;49.470;11.004;2022-12-29T14:08:54;12.60;63.40
6824;DHT22;58633;49.470;11.004;2022-12-29T14:11:22;12.60;63.50
6824;DHT22;58633;49.470;11.004;2022-12-29T14:13:50;12.60;63.50
6824;DHT22;58633;49.470;11.004;2022-12-29T14:16:33;12.60;63.40
6824;DHT22;58633;49.470;11.004;2022-12-29T14:19:51;12.50;63.40
6824;DHT22;58633;49.470;11.004;2022-12-29T14:21:56;12.50;63.40
6824;DHT22;58633;49.470;11.004;2022-12-29T14:34:50;12.40;64.00
6824;DHT22;58633;49.470;11.004;2022-12-29T14:37:31;12.30;64.80
6824;DHT22;58633;49.470;11.004;2022-12-29T14:42:44;12.20;64.70
6824;DHT22;58633;49.470;11.004;2022-12-29T14:47:41;12.20;65.00
6824;DHT22;58633;49.470;11.004;2022-12-29T14:52:47;12.20;65.30
6824;DHT22;58633;49.470;11.004;2022-12-29T14:57:51;12.20;65.60
6824;DHT22;58633;49.470;11.004;2022-12-29T15:00:22;14.10;67.60
6824;DHT22;58633;49.470;11.004;2022-12-29T15:03:06;12.20;65.60
6824;DHT22;58633;49.470;11.004;2022-12-29T15:05:37;12.10;65.60
6824;DHT22;58633;49.470;11.004;2022-12-29T15:08:06;12.20;65.80
6824;DHT22;58633;49.470;11.004;2022-12-29T15:10:47;12.20;65.90
6824;DHT22;58633;49.470;11.004;2022-12-29T15:13:23;12.10;65.80
6824;DHT22;58633;49.470;11.004;2022-12-29T15:15:49;12.30;66.10
6824;DHT22;58633;49.470;11.004;2022-12-29T15:18:31;12.10;65.90
6824;DHT22;58633;49.470;11.004;2022-12-29T15:21:05;12.10;66.00
6824;DHT22;58633;49.470;11.004;2022-12-29T15:23:33;12.10;66.00
6824;DHT22;58633;49.470;11.004;2022-12-29T15:26:06;12.00;66.00
6824;DHT22;58633;49.470;11.004;2022-12-29T15:28:38;12.10;66.20
6824;DHT22;58633;49.470;11.004;2022-12-29T15:31:09;12.00;66.10
6824;DHT22;58633;49.470;11.004;2022-12-29T15:33:39;12.00;66.10
6824;DHT22;58633;49.470;11.004;2022-12-29T15:36:13;12.00;66.80
6824;DHT22;58633;49.470;11.004;2022-12-29T15:38:39;12.00;66.40
6824;DHT22;58633;49.470;11.004;2022-12-29T15:41:29;11.90;66.30
6824;DHT22;58633;49.470;11.004;2022-12-29T15:44:21;11.90;66.40
6824;DHT22;58633;49.470;11.004;2022-12-29T15:46:48;11.90;66.70
6824;DHT22;58633;49.470;11.004;2022-12-29T15:49:15;11.90;66.70
6824;DHT22;58633;49.470;11.004;2022-12-29T15:51:41;11.80;66.80
6824;DHT22;58633;49.470;11.004;2022-12-29T15:54:19;11.80;66.90
6824;DHT22;58633;49.470;11.004;2022-12-29T15:56:45;11.80;67.00
6824;DHT22;58633;49.470;11.004;2022-12-29T15:59:45;11.80;66.90
6824;DHT22;58633;49.470;11.004;2022-12-29T16:02:11;11.80;67.10
6824;DHT22;58633;49.470;11.004;2022-12-29T16:04:38;11.80;67.10
6824;DHT22;58633;49.470;11.004;2022-12-29T16:07:06;11.80;67.30
6824;DHT22;58633;49.470;11.004;2022-12-29T16:09:43;11.80;67.40
6824;DHT22;58633;49.470;11.004;2022-12-29T16:12:19;11.80;67.40
6824;DHT22;58633;49.470;11.004;2022-12-29T16:14:48;11.80;67.50
6824;DHT22;58633;49.470;11.004;2022-12-29T16:17:19;11.80;67.50
6824;DHT22;58633;49.470;11.004;2022-12-29T16:19:57;11.80;67.60
6824;DHT22;58633;49.470;11.004;2022-12-29T16:22:38;11.80;68.30
6824;DHT22;58633;49.470;11.004;2022-12-29T16:25:19;11.80;67.70
6824;DHT22;58633;49.470;11.004;2022-12-29T16:27:47;11.80;67.70
6824;DHT22;58633;49.470;11.004;2022-12-29T16:30:24;11.70;67.60
6824;DHT22;58633;49.470;11.004;2022-12-29T16:32:52;11.80;67.80
6824;DHT22;58633;49.470;11.004;2022-12-29T16:35:19;11.70;67.70
6824;DHT22;58633;49.470;11.004;2022-12-29T16:37:46;11.70;67.80
6824;DHT22;58633;49.470;11.004;2022-12-29T16:42:49;11.70;68.00
6824;DHT22;58633;49.470;11.004;2022-12-29T16:48:18;11.70;68.10
6824;DHT22;58633;49.470;11.004;2022-12-29T16:50:45;11.70;68.10
6824;DHT22;58633;49.470;11.004;2022-12-29T16:53:24;11.70;68.20
6824;DHT22;58633;49.470;11.004;2022-12-29T16:55:52;11.70;68.30
6824;DHT22;58633;49.470;11.004;2022-12-29T16:58:24;11.70;68.40
6824;DHT22;58633;49.470;11.004;2022-12-29T17:00:57;11.70;68.50
6824;DHT22;58633;49.470;11.004;2022-12-29T17:03:32;11.70;68.40
6824;DHT22;58633;49.470;11.004;2022-12-29T17:05:59;11.70;68.50
6824;DHT22;58633;49.470;11.004;2022-12-29T17:08:24;11.60;68.50
6824;DHT22;58633;49.470;11.004;2022-12-29T17:10:55;11.70;68.70
6824;DHT22;58633;49.470;11.004;2022-12-29T17:13:40;11.70;68.70
6824;DHT22;58633;49.470;11.004;2022-12-29T17:16:07;11.70;68.70
6824;DHT22;58633;49.470;11.004;2022-12-29T17:18:34;11.70;68.70
6824;DHT22;58633;49.470;11.004;2022-12-29T17:21:00;11.60;68.70
6824;DHT22;58633;49.470;11.004;2022-12-29T17:23:26;11.70;69.10
6824;DHT22;58633;49.470;11.004;2022-12-29T17:25:53;11.60;69.40
6824;DHT22;58633;49.470;11.004;2022-12-29T17:30:49;11.50;70.50
6824;DHT22;58633;49.470;11.004;2022-12-29T17:33:18;11.30;70.70
6824;DHT22;58633;49.470;11.004;2022-12-29T17:35:44;11.10;71.30
6824;DHT22;58633;49.470;11.004;2022-12-29T17:38:26;11.00;71.90
6824;DHT22;58633;49.470;11.004;2022-12-29T17:40:52;10.90;72.90
6824;DHT22;58633;49.470;11.004;2022-12-29T17:43:18;10.80;73.10
6824;DHT22;58633;49.470;11.004;2022-12-29T17:45:48;10.60;73.80
6824;DHT22;58633;49.470;11.004;2022-12-29T17:48:16;10.40;74.80
6824;DHT22;58633;49.470;11.004;2022-12-29T17:50:42;10.30;75.70
6824;DHT22;58633;49.470;11.004;2022-12-29T17:53:13;10.30;76.40
6824;DHT22;58633;49.470;11.004;2022-12-29T17:55:40;10.20;77.20
6824;DHT22;58633;49.470;11.004;2022-12-29T17:58:17;10.20;77.50
6824;DHT22;58633;49.470;11.004;2022-12-29T18:00:44;10.20;78.40